createdAt,value
2018-09-10T00:00:57.586Z,14.10
2018-09-10T00:03:25.666Z,14.10
2018-09-10T00:05:53.746Z,14.00
2018-09-10T00:08:21.856Z,14.00
2018-09-10T00:10:49.909Z,13.90
2018-09-10T00:13:17.981Z,13.90
2018-09-10T00:15:46.047Z,13.90
2018-09-10T00:18:14.118Z,13.80
2018-09-10T00:20:42.241Z,13.80
2018-09-10T00:23:10.302Z,13.70
2018-09-10T00:25:38.434Z,13.50
2018-09-10T00:28:07.109Z,13.50
2018-09-10T00:30:35.166Z,13.40
2018-09-10T00:33:03.226Z,13.30
2018-09-10T00:35:31.330Z,13.30
2018-09-10T00:37:59.717Z,13.40
2018-09-10T00:40:27.770Z,13.40
2018-09-10T00:42:55.889Z,13.40
2018-09-10T00:45:23.976Z,13.40
2018-09-10T00:47:52.025Z,13.40
2018-09-10T00:50:20.079Z,13.40
2018-09-10T00:52:48.116Z,13.40
2018-09-10T00:55:16.181Z,13.30
2018-09-10T00:57:44.258Z,13.30
2018-09-10T01:00:12.346Z,13.20
2018-09-10T01:02:40.691Z,13.20
2018-09-10T01:05:08.748Z,13.10
2018-09-10T01:07:36.801Z,13.10
2018-09-10T01:10:04.910Z,13.00
2018-09-10T01:12:32.969Z,12.90
2018-09-10T01:15:01.052Z,12.90
2018-09-10T01:17:29.115Z,12.90
2018-09-10T01:19:57.160Z,12.80
2018-09-10T01:22:25.225Z,12.80
2018-09-10T01:24:53.299Z,12.70
2018-09-10T01:27:21.365Z,12.60
2018-09-10T01:29:49.435Z,12.60
2018-09-10T01:32:17.501Z,12.60
2018-09-10T01:34:51.232Z,12.50
2018-09-10T01:37:19.278Z,12.50
2018-09-10T01:39:47.350Z,12.50
2018-09-10T01:42:15.573Z,12.50
2018-09-10T01:44:43.627Z,12.60
2018-09-10T01:47:11.689Z,12.70
2018-09-10T01:49:39.734Z,12.80
2018-09-10T01:52:07.810Z,12.90
2018-09-10T01:54:35.834Z,12.90
2018-09-10T01:57:03.878Z,12.80
2018-09-10T01:59:31.926Z,12.70
2018-09-10T02:01:59.993Z,12.70
2018-09-10T02:04:28.047Z,12.70
2018-09-10T02:06:56.118Z,12.80
2018-09-10T02:09:24.167Z,12.80
2018-09-10T02:11:52.230Z,12.80
2018-09-10T02:14:20.327Z,12.80
2018-09-10T02:16:48.349Z,12.80
2018-09-10T02:19:16.438Z,12.90
2018-09-10T02:21:44.517Z,12.80
2018-09-10T02:24:12.557Z,12.80
2018-09-10T02:26:40.642Z,12.70
2018-09-10T02:29:08.686Z,12.70
2018-09-10T02:31:36.728Z,12.50
2018-09-10T02:34:04.770Z,12.60
2018-09-10T02:36:32.822Z,12.60
2018-09-10T02:39:00.889Z,12.50
2018-09-10T02:41:28.973Z,12.50
2018-09-10T02:43:57.026Z,12.50
2018-09-10T02:46:25.089Z,12.50
2018-09-10T02:48:53.141Z,12.50
2018-09-10T02:51:21.188Z,12.50
2018-09-10T02:53:49.234Z,12.50
2018-09-10T02:56:17.295Z,12.40
2018-09-10T02:58:45.367Z,12.30
2018-09-10T03:01:13.542Z,12.30
2018-09-10T03:03:41.806Z,12.40
2018-09-10T03:06:09.871Z,12.50
2018-09-10T03:08:37.941Z,12.50
2018-09-10T03:11:05.992Z,12.40
2018-09-10T03:13:34.051Z,12.40
2018-09-10T03:16:02.118Z,12.30
2018-09-10T03:18:30.154Z,12.30
2018-09-10T03:20:58.210Z,12.30
2018-09-10T03:23:26.303Z,12.30
2018-09-10T03:25:54.357Z,12.30
2018-09-10T03:28:22.406Z,12.30
2018-09-10T03:30:50.455Z,12.30
2018-09-10T03:33:18.494Z,12.20
2018-09-10T03:35:46.538Z,12.20
2018-09-10T03:38:14.593Z,12.20
2018-09-10T03:40:42.651Z,12.10
2018-09-10T03:43:10.709Z,12.00
2018-09-10T03:45:38.793Z,12.00
2018-09-10T03:48:06.920Z,12.10
2018-09-10T03:50:35.021Z,12.10
2018-09-10T03:53:03.038Z,12.10
2018-09-10T03:58:05.782Z,12.00
2018-09-10T04:00:33.845Z,12.00
2018-09-10T04:03:01.910Z,12.00
2018-09-10T04:05:29.963Z,12.10
2018-09-10T04:07:58.034Z,12.10
2018-09-10T04:10:26.118Z,12.10
2018-09-10T04:12:54.158Z,12.00
2018-09-10T04:15:22.200Z,12.00
2018-09-10T04:17:50.243Z,12.10
2018-09-10T04:20:18.318Z,12.10
2018-09-10T04:22:46.359Z,12.20
2018-09-10T04:25:14.433Z,12.20
2018-09-10T04:27:42.477Z,12.20
2018-09-10T04:30:13.610Z,12.10
2018-09-10T04:32:41.663Z,12.10
2018-09-10T04:35:10.331Z,12.10
2018-09-10T04:37:39.814Z,12.10
2018-09-10T04:40:08.183Z,12.10
2018-09-10T04:42:36.323Z,12.00
2018-09-10T04:45:04.845Z,12.00
2018-09-10T04:47:32.912Z,12.00
2018-09-10T04:50:01.013Z,12.00
2018-09-10T04:52:29.108Z,12.00
2018-09-10T04:54:57.154Z,12.00
2018-09-10T04:57:25.226Z,12.00
2018-09-10T04:59:53.303Z,11.90
2018-09-10T05:02:21.363Z,11.90
2018-09-10T05:04:49.475Z,11.80
2018-09-10T05:07:17.527Z,11.80
2018-09-10T05:09:45.611Z,11.80
2018-09-10T05:12:14.298Z,11.80
2018-09-10T05:14:42.362Z,11.80
2018-09-10T05:17:10.434Z,11.80
2018-09-10T05:19:38.473Z,11.90
2018-09-10T05:22:06.731Z,12.00
2018-09-10T05:24:34.606Z,12.10
2018-09-10T05:27:02.660Z,12.20
2018-09-10T05:29:30.794Z,12.20
2018-09-10T05:31:58.856Z,12.30
2018-09-10T05:34:27.146Z,12.30
2018-09-10T05:36:55.186Z,12.30
2018-09-10T05:39:23.230Z,12.30
2018-09-10T05:41:51.286Z,12.40
2018-09-10T05:44:19.339Z,12.50
2018-09-10T05:46:47.411Z,12.50
2018-09-10T05:49:15.450Z,12.60
2018-09-10T05:51:43.641Z,12.70
2018-09-10T05:54:11.681Z,12.70
2018-09-10T05:56:39.845Z,12.70
2018-09-10T05:59:07.939Z,12.70
2018-09-10T06:01:35.966Z,12.80
2018-09-10T06:04:04.137Z,12.90
2018-09-10T06:06:32.183Z,12.90
2018-09-10T06:09:00.436Z,12.90
2018-09-10T06:11:28.465Z,13.00
2018-09-10T06:13:56.546Z,13.00
2018-09-10T06:16:24.630Z,13.00
2018-09-10T06:18:52.725Z,13.20
2018-09-10T06:21:20.805Z,13.30
2018-09-10T06:23:48.839Z,13.50
2018-09-10T06:26:16.887Z,13.60
2018-09-10T06:28:44.954Z,13.70
2018-09-10T06:31:13.002Z,13.70
2018-09-10T06:33:41.025Z,13.70
2018-09-10T06:36:09.090Z,13.90
2018-09-10T06:38:37.151Z,13.90
2018-09-10T06:41:05.419Z,14.00
2018-09-10T06:43:33.482Z,14.10
2018-09-10T06:46:01.702Z,14.10
2018-09-10T06:48:34.018Z,14.20
2018-09-10T06:51:02.829Z,14.20
2018-09-10T06:53:30.887Z,14.30
2018-09-10T06:55:58.930Z,14.40
2018-09-10T06:58:26.998Z,14.50
2018-09-10T07:00:55.050Z,14.50
2018-09-10T07:03:23.125Z,14.50
2018-09-10T07:05:51.186Z,14.50
2018-09-10T07:08:19.223Z,14.60
2018-09-10T07:10:47.285Z,14.60
2018-09-10T07:13:15.381Z,14.70
2018-09-10T07:15:43.409Z,14.80
2018-09-10T07:18:11.450Z,14.80
2018-09-10T07:20:39.504Z,15.00
2018-09-10T07:23:07.554Z,15.00
2018-09-10T07:25:35.599Z,15.00
2018-09-10T07:28:03.638Z,15.10
2018-09-10T07:30:31.674Z,15.30
2018-09-10T07:32:59.738Z,15.40
2018-09-10T07:35:27.775Z,15.50
2018-09-10T07:37:55.850Z,15.60
2018-09-10T07:40:23.908Z,15.70
2018-09-10T07:42:51.949Z,15.70
2018-09-10T07:45:20.011Z,15.80
2018-09-10T07:47:48.058Z,15.90
2018-09-10T07:50:16.127Z,15.90
2018-09-10T07:52:44.226Z,16.10
2018-09-10T07:55:12.220Z,16.20
2018-09-10T07:57:40.286Z,16.30
2018-09-10T08:00:08.623Z,16.40
2018-09-10T08:02:36.682Z,16.60
2018-09-10T08:05:04.754Z,16.70
2018-09-10T08:07:32.822Z,16.80
2018-09-10T08:10:00.871Z,16.90
2018-09-10T08:12:28.914Z,17.10
2018-09-10T08:14:56.972Z,17.20
2018-09-10T08:17:24.352Z,17.20
2018-09-10T08:19:52.402Z,17.40
2018-09-10T08:22:20.470Z,17.50
2018-09-10T08:24:47.867Z,17.70
2018-09-10T08:27:15.257Z,17.90
2018-09-10T08:29:42.714Z,18.10
2018-09-10T08:32:10.285Z,18.40
2018-09-10T08:34:37.689Z,18.40
2018-09-10T08:37:05.776Z,18.50
2018-09-10T08:39:33.449Z,18.70
2018-09-10T08:42:00.837Z,18.90
2018-09-10T08:44:28.540Z,19.10
2018-09-10T08:46:55.921Z,19.20
2018-09-10T08:49:23.978Z,19.20
2018-09-10T08:51:51.366Z,19.50
2018-09-10T08:54:19.531Z,19.50
2018-09-10T08:56:46.833Z,19.60
2018-09-10T08:59:14.885Z,19.70
2018-09-10T09:01:42.312Z,19.80
2018-09-10T09:04:09.654Z,19.70
2018-09-10T09:06:37.057Z,19.70
2018-09-10T09:09:05.561Z,19.60
2018-09-10T09:11:32.969Z,19.80
2018-09-10T09:14:00.367Z,19.90
2018-09-10T09:16:27.752Z,20.00
2018-09-10T09:18:55.150Z,20.20
2018-09-10T09:21:23.211Z,20.30
2018-09-10T09:23:50.616Z,20.30
2018-09-10T09:26:17.998Z,20.50
2018-09-10T09:28:45.406Z,20.80
2018-09-10T09:31:12.814Z,21.00
2018-09-10T09:33:40.197Z,21.20
2018-09-10T09:36:13.036Z,21.50
2018-09-10T09:38:45.982Z,21.70
2018-09-10T09:41:18.866Z,21.80
2018-09-10T09:43:51.821Z,21.90
2018-09-10T09:46:20.197Z,22.00
2018-09-10T09:48:47.598Z,22.10
2018-09-10T09:51:15.024Z,22.40
2018-09-10T09:53:42.366Z,22.80
2018-09-10T09:56:09.749Z,22.80
2018-09-10T09:58:37.152Z,23.00
2018-09-10T10:01:10.177Z,23.10
2018-09-10T10:03:43.175Z,23.10
2018-09-10T10:06:10.574Z,23.20
2018-09-10T10:08:38.632Z,23.40
2018-09-10T10:11:06.708Z,23.50
2018-09-10T10:13:34.101Z,23.60
2018-09-10T10:16:02.137Z,23.70
2018-09-10T10:18:30.191Z,23.90
2018-09-10T10:20:57.594Z,24.00
2018-09-10T10:23:24.985Z,24.10
2018-09-10T10:25:52.379Z,24.30
2018-09-10T10:28:19.825Z,24.40
2018-09-10T10:30:47.149Z,24.40
2018-09-10T10:33:14.570Z,24.40
2018-09-10T10:35:41.967Z,24.30
2018-09-10T10:38:09.346Z,24.40
2018-09-10T10:40:36.761Z,24.40
2018-09-10T10:43:04.146Z,24.50
2018-09-10T10:45:31.529Z,24.30
2018-09-10T10:47:58.939Z,24.20
2018-09-10T10:50:26.355Z,24.30
2018-09-10T10:52:54.442Z,24.40
2018-09-10T10:55:21.853Z,24.50
2018-09-10T10:57:49.904Z,25.00
2018-09-10T11:00:17.986Z,25.50
2018-09-10T11:02:45.402Z,25.90
2018-09-10T11:05:12.802Z,26.20
2018-09-10T11:07:40.197Z,26.70
2018-09-10T11:10:07.633Z,27.30
2018-09-10T11:12:35.024Z,27.70
2018-09-10T11:15:02.413Z,28.20
2018-09-10T11:17:29.961Z,28.60
2018-09-10T11:19:57.438Z,28.60
2018-09-10T11:22:25.082Z,28.80
2018-09-10T11:24:52.441Z,28.70
2018-09-10T11:27:19.830Z,28.50
2018-09-10T11:29:47.237Z,28.70
2018-09-10T11:32:14.608Z,29.30
2018-09-10T11:34:42.239Z,29.40
2018-09-10T11:37:09.543Z,28.50
2018-09-10T11:39:36.949Z,28.40
2018-09-10T11:42:04.461Z,29.00
2018-09-10T11:44:31.854Z,29.60
2018-09-10T11:46:59.469Z,29.80
2018-09-10T11:49:26.851Z,29.60
2018-09-10T11:51:54.244Z,29.40
2018-09-10T11:54:21.650Z,29.60
2018-09-10T11:56:49.050Z,30.10
2018-09-10T11:59:16.665Z,30.50
2018-09-10T12:01:44.981Z,30.40
2018-09-10T12:04:12.950Z,30.40
2018-09-10T12:06:41.014Z,30.40
2018-09-10T12:09:09.977Z,30.20
2018-09-10T12:11:38.138Z,30.20
2018-09-10T12:14:06.207Z,30.40
2018-09-10T12:16:34.274Z,30.50
2018-09-10T12:19:02.342Z,30.90
2018-09-10T12:21:30.452Z,31.20
2018-09-10T12:23:58.466Z,31.30
2018-09-10T12:26:25.838Z,31.20
2018-09-10T12:28:53.937Z,31.00
2018-09-10T12:31:21.966Z,31.20
2018-09-10T12:33:49.381Z,31.20
2018-09-10T12:36:16.775Z,30.90
2018-09-10T12:38:44.818Z,31.10
2018-09-10T12:41:12.914Z,31.10
2018-09-10T12:43:40.294Z,31.00
2018-09-10T12:46:07.693Z,31.80
2018-09-10T12:48:35.358Z,32.30
2018-09-10T12:51:03.390Z,32.40
2018-09-10T12:53:31.694Z,31.80
2018-09-10T12:55:59.084Z,31.40
2018-09-10T12:58:26.462Z,31.20
2018-09-10T13:00:53.849Z,31.00
2018-09-10T13:03:21.234Z,31.20
2018-09-10T13:05:48.622Z,31.00
2018-09-10T13:08:16.003Z,30.60
2018-09-10T13:10:43.419Z,30.50
2018-09-10T13:13:10.797Z,30.70
2018-09-10T13:15:38.526Z,30.50
2018-09-10T13:18:05.906Z,29.90
2018-09-10T13:20:33.318Z,29.20
2018-09-10T13:23:00.718Z,29.60
2018-09-10T13:25:28.375Z,30.30
2018-09-10T13:27:55.770Z,30.40
2018-09-10T13:30:23.168Z,30.40
2018-09-10T13:32:50.532Z,30.50
2018-09-10T13:35:17.963Z,31.30
2018-09-10T13:37:45.363Z,31.20
2018-09-10T13:40:12.778Z,30.70
2018-09-10T13:42:40.178Z,30.40
2018-09-10T13:45:07.562Z,31.10
2018-09-10T13:47:34.953Z,31.40
2018-09-10T13:50:02.339Z,31.90
2018-09-10T13:52:30.381Z,32.10
2018-09-10T13:54:57.801Z,32.20
2018-09-10T13:57:25.202Z,32.30
2018-09-10T13:59:52.585Z,32.60
2018-09-10T14:02:20.110Z,32.80
2018-09-10T14:04:47.497Z,32.40
2018-09-10T14:07:15.222Z,32.30
2018-09-10T14:09:43.385Z,32.00
2018-09-10T14:12:10.774Z,31.90
2018-09-10T14:14:38.174Z,31.70
2018-09-10T14:17:06.242Z,31.30
2018-09-10T14:19:33.634Z,31.80
2018-09-10T14:22:01.037Z,32.40
2018-09-10T14:24:28.418Z,32.30
2018-09-10T14:26:55.802Z,31.90
2018-09-10T14:29:23.199Z,31.50
2018-09-10T14:31:50.710Z,31.50
2018-09-10T14:34:18.050Z,31.50
2018-09-10T14:36:45.846Z,31.60
2018-09-10T14:39:13.233Z,31.60
2018-09-10T14:41:40.628Z,31.20
2018-09-10T14:44:08.022Z,30.60
2018-09-10T14:46:35.427Z,30.40
2018-09-10T14:49:02.820Z,30.10
2018-09-10T14:51:30.215Z,30.20
2018-09-10T14:53:57.637Z,30.40
2018-09-10T14:56:25.038Z,30.20
2018-09-10T14:58:52.426Z,30.20
2018-09-10T15:01:19.813Z,30.40
2018-09-10T15:03:47.222Z,30.70
2018-09-10T15:06:14.649Z,30.90
2018-09-10T15:08:42.057Z,31.10
2018-09-10T15:11:09.464Z,31.60
2018-09-10T15:13:36.875Z,31.60
2018-09-10T15:16:04.262Z,31.70
2018-09-10T15:18:31.779Z,31.70
2018-09-10T15:20:59.156Z,31.70
2018-09-10T15:23:26.709Z,31.10
2018-09-10T15:25:54.108Z,30.00
2018-09-10T15:28:21.534Z,30.00
2018-09-10T15:30:48.938Z,30.30
2018-09-10T15:33:16.320Z,30.80
2018-09-10T15:35:43.712Z,31.20
2018-09-10T15:38:11.114Z,31.00
2018-09-10T15:40:38.561Z,30.70
2018-09-10T15:43:05.912Z,30.20
2018-09-10T15:45:33.293Z,30.00
2018-09-10T15:48:00.685Z,30.00
2018-09-10T15:50:28.062Z,29.80
2018-09-10T15:52:55.478Z,29.70
2018-09-10T15:55:22.841Z,29.50
2018-09-10T15:57:50.234Z,29.60
2018-09-10T16:00:17.630Z,29.50
2018-09-10T16:02:45.017Z,29.20
2018-09-10T16:05:12.422Z,29.00
2018-09-10T16:07:39.805Z,28.90
2018-09-10T16:12:16.056Z,28.60
2018-09-10T16:14:43.538Z,28.30
2018-09-10T16:17:10.933Z,28.20
2018-09-10T16:19:38.329Z,27.90
2018-09-10T16:22:05.763Z,27.80
2018-09-10T16:24:33.112Z,27.90
2018-09-10T16:27:00.497Z,27.90
2018-09-10T16:29:27.893Z,27.70
2018-09-10T16:31:55.301Z,27.60
2018-09-10T16:34:23.134Z,27.70
2018-09-10T16:36:51.208Z,27.80
2018-09-10T16:39:18.565Z,27.80
2018-09-10T16:41:45.992Z,27.70
2018-09-10T16:44:13.377Z,27.60
2018-09-10T16:46:40.827Z,27.40
2018-09-10T16:49:08.226Z,27.30
2018-09-10T16:51:35.609Z,27.10
2018-09-10T16:54:03.023Z,26.90
2018-09-10T16:56:30.385Z,26.90
2018-09-10T16:58:57.785Z,26.70
2018-09-10T17:01:25.554Z,26.60
2018-09-10T17:03:53.001Z,26.50
2018-09-10T17:06:21.183Z,26.40
2018-09-10T17:08:48.581Z,26.40
2018-09-10T17:11:15.974Z,26.10
2018-09-10T17:13:43.357Z,26.00
2018-09-10T17:16:10.773Z,25.90
2018-09-10T17:18:38.180Z,25.90
2018-09-10T17:21:05.578Z,25.70
2018-09-10T17:23:32.971Z,25.60
2018-09-10T17:26:00.878Z,25.60
2018-09-10T17:28:28.289Z,25.50
2018-09-10T17:30:55.685Z,25.40
2018-09-10T17:33:23.123Z,25.40
2018-09-10T17:35:50.541Z,25.30
2018-09-10T17:38:17.937Z,25.20
2018-09-10T17:40:45.337Z,25.00
2018-09-10T17:43:12.777Z,24.90
2018-09-10T17:45:40.188Z,24.70
2018-09-10T17:48:07.874Z,24.60
2018-09-10T17:50:35.278Z,24.50
2018-09-10T17:53:02.781Z,24.50
2018-09-10T17:55:30.079Z,24.40
2018-09-10T17:57:57.496Z,24.30
2018-09-10T18:00:24.923Z,24.30
2018-09-10T18:02:52.329Z,24.20
2018-09-10T18:05:20.053Z,24.20
2018-09-10T18:07:47.441Z,24.00
2018-09-10T18:10:14.846Z,23.90
2018-09-10T18:12:42.244Z,23.90
2018-09-10T18:15:09.651Z,23.80
2018-09-10T18:17:37.061Z,23.60
2018-09-10T18:20:04.642Z,23.40
2018-09-10T18:22:32.051Z,23.30
2018-09-10T18:24:59.469Z,23.20
2018-09-10T18:27:26.837Z,23.00
2018-09-10T18:29:54.373Z,22.90
2018-09-10T18:32:21.794Z,22.80
2018-09-10T18:34:49.203Z,22.80
2018-09-10T18:37:20.934Z,22.90
2018-09-10T18:39:48.343Z,22.80
2018-09-10T18:42:15.740Z,22.70
2018-09-10T18:44:43.799Z,22.60
2018-09-10T18:47:11.883Z,22.50
2018-09-10T18:49:39.295Z,22.40
2018-09-10T18:52:07.530Z,22.30
2018-09-10T18:54:35.808Z,22.20
2018-09-10T18:57:03.862Z,22.20
2018-09-10T18:59:32.062Z,22.10
2018-09-10T19:02:00.110Z,21.90
2018-09-10T19:04:28.181Z,21.90
2018-09-10T19:06:56.304Z,21.80
2018-09-10T19:09:24.357Z,21.70
2018-09-10T19:11:52.416Z,21.60
2018-09-10T19:14:20.448Z,21.50
2018-09-10T19:16:48.520Z,21.40
2018-09-10T19:19:16.591Z,21.30
2018-09-10T19:21:44.637Z,21.30
2018-09-10T19:24:12.713Z,21.20
2018-09-10T19:26:40.762Z,21.20
2018-09-10T19:29:08.826Z,21.10
2018-09-10T19:31:36.931Z,21.10
2018-09-10T19:34:05.010Z,21.00
2018-09-10T19:36:33.053Z,21.00
2018-09-10T19:39:00.462Z,20.90
2018-09-10T19:41:28.539Z,20.90
2018-09-10T19:43:56.624Z,20.90
2018-09-10T19:46:24.646Z,20.90
2018-09-10T19:48:52.678Z,20.80
2018-09-10T19:51:20.726Z,20.70
2018-09-10T19:53:48.762Z,20.70
2018-09-10T19:56:16.805Z,20.70
2018-09-10T19:58:44.861Z,20.70
2018-09-10T20:01:12.241Z,20.60
2018-09-10T20:03:40.298Z,20.60
2018-09-10T20:06:08.355Z,20.50
2018-09-10T20:08:35.757Z,20.40
2018-09-10T20:11:03.212Z,20.40
2018-09-10T20:13:30.757Z,20.30
2018-09-10T20:15:58.152Z,20.40
2018-09-10T20:18:25.578Z,20.30
2018-09-10T20:20:53.148Z,20.30
2018-09-10T20:23:21.240Z,20.30
2018-09-10T20:25:49.298Z,20.20
2018-09-10T20:28:17.430Z,20.10
2018-09-10T20:30:44.873Z,19.90
2018-09-10T20:33:12.233Z,19.90
2018-09-10T20:35:39.670Z,19.90
2018-09-10T20:38:07.070Z,19.90
2018-09-10T20:40:34.458Z,20.10
2018-09-10T20:43:01.874Z,20.20
2018-09-10T20:45:29.975Z,20.20
2018-09-10T20:47:58.020Z,20.20
2018-09-10T20:50:25.605Z,20.10
2018-09-10T20:52:53.670Z,20.10
2018-09-10T20:55:21.066Z,20.10
2018-09-10T20:57:48.473Z,20.10
2018-09-10T21:00:16.054Z,20.10
2018-09-10T21:02:44.098Z,20.10
2018-09-10T21:05:12.199Z,20.10
2018-09-10T21:07:39.659Z,20.00
2018-09-10T21:10:06.988Z,20.00
2018-09-10T21:12:35.112Z,20.00
2018-09-10T21:15:02.529Z,19.90
2018-09-10T21:17:30.017Z,19.90
2018-09-10T21:19:57.641Z,19.80
2018-09-10T21:22:25.098Z,19.70
2018-09-10T21:24:53.157Z,19.60
2018-09-10T21:27:21.240Z,19.50
2018-09-10T21:29:48.777Z,19.50
2018-09-10T21:32:16.957Z,19.50
2018-09-10T21:34:44.402Z,19.50
2018-09-10T21:37:11.851Z,19.60
2018-09-10T21:39:39.266Z,19.60
2018-09-10T21:42:06.677Z,19.70
2018-09-10T21:44:34.057Z,19.70
2018-09-10T21:47:01.486Z,19.70
2018-09-10T21:49:29.514Z,19.70
2018-09-10T21:51:57.580Z,19.70
2018-09-10T21:54:25.682Z,19.70
2018-09-10T21:56:53.085Z,19.80
2018-09-10T21:59:20.613Z,19.80
2018-09-10T22:01:48.038Z,19.80
2018-09-10T22:04:15.434Z,19.80
2018-09-10T22:06:42.834Z,19.80
2018-09-10T22:09:10.221Z,19.80
2018-09-10T22:11:43.141Z,19.70
2018-09-10T22:14:10.556Z,19.70
2018-09-10T22:16:38.626Z,19.70
2018-09-10T22:19:06.694Z,19.70
2018-09-10T22:21:34.762Z,19.70
2018-09-10T22:24:02.859Z,19.70
2018-09-10T22:26:30.284Z,19.70
2018-09-10T22:28:58.331Z,19.70
2018-09-10T22:31:26.406Z,19.60
2018-09-10T22:33:54.494Z,19.60
2018-09-10T22:36:21.905Z,19.60
2018-09-10T22:38:49.978Z,19.60
2018-09-10T22:41:18.044Z,19.60
2018-09-10T22:43:46.094Z,19.50
2018-09-10T22:46:14.182Z,19.40
2018-09-10T22:48:42.249Z,19.40
2018-09-10T22:51:09.628Z,19.40
2018-09-10T22:53:37.689Z,19.40
2018-09-10T22:56:05.730Z,19.30
2018-09-10T22:58:33.785Z,19.30
2018-09-10T23:01:01.845Z,19.20
2018-09-10T23:03:29.886Z,19.10
2018-09-10T23:05:57.983Z,19.00
2018-09-10T23:08:26.074Z,18.90
2018-09-10T23:10:54.142Z,18.80
2018-09-10T23:13:22.255Z,18.70
2018-09-10T23:15:50.297Z,18.60
2018-09-10T23:18:18.373Z,18.60
2018-09-10T23:20:46.426Z,18.60
2018-09-10T23:23:14.542Z,18.50
2018-09-10T23:25:42.601Z,18.40
2018-09-10T23:28:10.670Z,18.30
2018-09-10T23:30:38.726Z,18.20
2018-09-10T23:33:06.810Z,18.10
2018-09-10T23:35:34.878Z,18.00
2018-09-10T23:38:03.254Z,18.00
2018-09-10T23:40:32.100Z,18.10
2018-09-10T23:43:00.146Z,18.00
2018-09-10T23:45:29.147Z,18.00
2018-09-10T23:47:57.166Z,17.90
2018-09-10T23:50:25.443Z,17.80
2018-09-10T23:52:53.505Z,17.80
2018-09-10T23:55:21.542Z,17.70
2018-09-10T23:57:50.274Z,17.50
